createdAt,value
2022-12-25T00:01:11.209Z,24.70
2022-12-25T00:03:40.696Z,23.43
2022-12-25T00:06:09.678Z,25.73
2022-12-25T00:08:40.944Z,24.20
2022-12-25T00:11:14.293Z,23.57
2022-12-25T00:13:43.436Z,27.33
2022-12-25T00:16:16.664Z,23.70
2022-12-25T00:18:45.717Z,23.27
2022-12-25T00:21:15.466Z,23.70
2022-12-25T00:23:44.549Z,21.00
2022-12-25T00:26:16.831Z,21.63
2022-12-25T00:28:45.639Z,22.17
2022-12-25T00:31:16.268Z,22.63
2022-12-25T00:33:46.510Z,20.70
2022-12-25T00:36:17.778Z,22.70
2022-12-25T00:38:47.016Z,21.73
2022-12-25T00:41:38.844Z,24.60
2022-12-25T00:44:07.746Z,26.87
2022-12-25T00:46:36.462Z,24.83
2022-12-25T00:49:08.079Z,25.00
2022-12-25T00:51:36.901Z,21.43
2022-12-25T00:54:05.697Z,20.97
2022-12-25T00:56:38.555Z,19.83
2022-12-25T00:59:07.244Z,20.40
2022-12-25T01:01:36.347Z,19.57
2022-12-25T01:04:05.621Z,23.17
2022-12-25T01:06:34.280Z,21.73
2022-12-25T01:09:28.614Z,22.97
2022-12-25T01:11:58.658Z,24.40
2022-12-25T01:14:27.324Z,22.83
2022-12-25T01:16:56.072Z,21.10
2022-12-25T01:19:24.722Z,20.23
2022-12-25T01:21:53.349Z,20.50
2022-12-25T01:24:21.925Z,22.47
2022-12-25T01:26:52.558Z,21.47
2022-12-25T01:29:22.641Z,18.80
2022-12-25T01:31:51.318Z,18.43
2022-12-25T01:34:19.948Z,17.90
2022-12-25T01:36:48.506Z,17.73
2022-12-25T01:39:17.031Z,17.53
2022-12-25T01:41:45.868Z,19.27
2022-12-25T01:44:47.786Z,17.50
2022-12-25T01:47:19.244Z,21.27
2022-12-25T01:49:51.407Z,16.17
2022-12-25T01:52:24.497Z,15.40
2022-12-25T01:54:59.820Z,16.20
2022-12-25T01:57:31.018Z,16.10
2022-12-25T02:00:01.407Z,16.93
2022-12-25T02:02:31.730Z,16.13
2022-12-25T02:05:05.234Z,16.03
2022-12-25T02:07:36.941Z,16.80
2022-12-25T02:10:06.720Z,15.43
2022-12-25T02:12:36.548Z,14.40
2022-12-25T02:15:08.498Z,15.43
2022-12-25T02:17:47.249Z,13.57
2022-12-25T02:20:48.572Z,15.43
2022-12-25T02:23:43.505Z,17.80
2022-12-25T02:26:19.472Z,18.63
2022-12-25T02:28:58.731Z,16.03
2022-12-25T02:31:34.212Z,17.07
2022-12-25T02:34:08.692Z,16.67
2022-12-25T02:36:45.854Z,15.20
2022-12-25T02:39:40.340Z,16.33
2022-12-25T02:42:13.703Z,16.50
2022-12-25T02:45:04.221Z,16.07
2022-12-25T02:47:51.856Z,17.37
2022-12-25T02:50:38.983Z,17.67
2022-12-25T02:53:27.469Z,16.33
2022-12-25T02:56:15.618Z,15.00
2022-12-25T02:59:03.698Z,14.07
2022-12-25T03:01:56.959Z,15.10
2022-12-25T03:04:45.960Z,18.30
2022-12-25T03:07:17.921Z,19.10
2022-12-25T03:10:10.292Z,15.77
2022-12-25T03:12:46.289Z,18.67
2022-12-25T03:15:33.026Z,19.10
2022-12-25T03:18:06.639Z,21.60
2022-12-25T03:20:52.944Z,16.73
2022-12-25T03:23:43.304Z,19.67
2022-12-25T03:26:29.432Z,18.00
2022-12-25T03:28:58.077Z,20.63
2022-12-25T03:31:34.269Z,17.60
2022-12-25T03:34:50.657Z,18.77
2022-12-25T03:37:57.807Z,22.70
2022-12-25T03:40:50.538Z,24.97
2022-12-25T03:43:44.245Z,22.37
2022-12-25T03:46:35.016Z,24.33
2022-12-25T03:49:29.125Z,20.80
2022-12-25T03:52:19.681Z,23.80
2022-12-25T03:55:06.440Z,22.13
2022-12-25T03:57:53.228Z,20.77
2022-12-25T04:00:39.431Z,21.70
2022-12-25T04:03:28.421Z,21.27
2022-12-25T04:06:14.281Z,22.47
2022-12-25T04:09:01.814Z,21.97
2022-12-25T04:11:47.585Z,20.43
2022-12-25T04:14:33.346Z,20.67
2022-12-25T04:17:19.232Z,21.77
2022-12-25T04:20:05.333Z,21.47
2022-12-25T04:22:51.453Z,22.70
2022-12-25T04:25:39.043Z,23.07
2022-12-25T04:28:24.910Z,21.20
2022-12-25T04:31:11.222Z,19.97
2022-12-25T04:33:56.991Z,22.83
2022-12-25T04:36:25.593Z,22.07
2022-12-25T04:38:54.124Z,20.30
2022-12-25T04:41:24.176Z,21.40
2022-12-25T04:43:52.743Z,19.70
2022-12-25T04:46:21.322Z,19.47
2022-12-25T04:48:50.203Z,20.60
2022-12-25T04:51:21.180Z,20.30
2022-12-25T04:53:51.119Z,19.73
2022-12-25T04:56:20.718Z,19.50
2022-12-25T04:58:51.123Z,18.83
2022-12-25T05:01:19.776Z,18.63
2022-12-25T05:03:48.634Z,19.20
2022-12-25T05:06:17.230Z,21.13
2022-12-25T05:08:47.458Z,20.57
2022-12-25T05:11:17.696Z,19.60
2022-12-25T05:13:47.562Z,19.83
2022-12-25T05:16:20.284Z,19.63
2022-12-25T05:18:51.073Z,19.73
2022-12-25T05:21:20.033Z,21.17
2022-12-25T05:23:51.483Z,19.47
2022-12-25T05:26:22.307Z,19.30
2022-12-25T05:28:51.482Z,21.57
2022-12-25T05:31:22.041Z,19.53
2022-12-25T05:33:51.944Z,20.27
2022-12-25T05:36:21.220Z,19.67
2022-12-25T05:38:49.837Z,20.93
2022-12-25T05:41:18.432Z,21.30
2022-12-25T05:43:47.115Z,20.67
2022-12-25T05:46:16.235Z,21.00
2022-12-25T05:48:46.554Z,20.60
2022-12-25T05:51:16.300Z,21.33
2022-12-25T05:53:45.363Z,21.20
2022-12-25T05:56:14.052Z,21.40
2022-12-25T05:58:42.946Z,20.33
2022-12-25T06:01:16.767Z,20.13
2022-12-25T06:03:46.930Z,20.47
2022-12-25T06:06:15.915Z,20.87
2022-12-25T06:08:45.007Z,21.43
2022-12-25T06:11:15.793Z,21.67
2022-12-25T06:13:44.849Z,22.20
2022-12-25T06:16:14.145Z,23.13
2022-12-25T06:18:47.837Z,22.17
2022-12-25T06:21:17.484Z,22.67
2022-12-25T06:23:46.718Z,23.43
2022-12-25T06:26:17.537Z,22.50
2022-12-25T06:28:46.829Z,22.63
2022-12-25T06:31:17.844Z,21.30
2022-12-25T06:33:48.482Z,20.47
2022-12-25T06:36:19.221Z,19.83
2022-12-25T06:38:47.867Z,20.57
2022-12-25T06:41:18.135Z,20.80
2022-12-25T06:43:50.246Z,20.53
2022-12-25T06:46:19.816Z,20.97
2022-12-25T06:48:52.891Z,25.33
2022-12-25T06:51:24.289Z,28.90
2022-12-25T06:53:54.518Z,22.63
2022-12-25T06:56:24.973Z,22.17
2022-12-25T06:58:56.702Z,22.57
2022-12-25T07:01:27.624Z,21.63
2022-12-25T07:04:00.898Z,20.97
2022-12-25T07:06:29.644Z,20.23
2022-12-25T07:08:58.319Z,20.90
2022-12-25T07:11:27.428Z,20.60
2022-12-25T07:13:57.135Z,20.80
2022-12-25T07:16:25.851Z,21.57
2022-12-25T07:18:54.496Z,21.33
2022-12-25T07:21:24.471Z,21.37
2022-12-25T07:23:53.305Z,22.27
2022-12-25T07:26:21.883Z,21.80
2022-12-25T07:28:50.543Z,21.40
2022-12-25T07:31:19.639Z,19.27
2022-12-25T07:33:48.843Z,20.77
2022-12-25T07:36:18.040Z,20.33
2022-12-25T07:38:50.377Z,21.10
2022-12-25T07:41:20.360Z,20.60
2022-12-25T07:43:51.893Z,21.37
2022-12-25T07:46:20.956Z,21.83
2022-12-25T07:48:49.579Z,20.67
2022-12-25T07:51:18.121Z,21.00
2022-12-25T07:53:48.340Z,20.73
2022-12-25T07:56:18.868Z,21.30
2022-12-25T07:58:48.541Z,29.10
2022-12-25T08:01:20.309Z,25.33
2022-12-25T08:03:51.883Z,25.77
2022-12-25T08:06:21.296Z,27.60
2022-12-25T08:08:51.320Z,31.10
2022-12-25T08:11:19.951Z,34.00
2022-12-25T08:13:49.421Z,32.63
2022-12-25T08:16:18.077Z,30.60
2022-12-25T08:18:47.371Z,30.03
2022-12-25T08:21:17.086Z,30.53
2022-12-25T08:23:47.566Z,29.90
2022-12-25T08:26:19.535Z,28.60
2022-12-25T08:28:48.792Z,27.63
2022-12-25T08:31:19.824Z,28.57
2022-12-25T08:33:48.803Z,29.63
2022-12-25T08:36:17.737Z,27.70
2022-12-25T08:38:47.429Z,27.87
2022-12-25T08:41:18.139Z,27.60
2022-12-25T08:43:47.957Z,31.08
2022-12-25T08:46:16.585Z,27.80
2022-12-25T08:48:47.839Z,28.80
2022-12-25T08:51:18.139Z,28.52
2022-12-25T08:53:48.488Z,26.10
2022-12-25T08:56:19.583Z,26.37
2022-12-25T08:58:48.423Z,26.17
2022-12-25T09:01:17.264Z,26.03
2022-12-25T09:03:46.149Z,25.87
2022-12-25T09:06:16.440Z,26.30
2022-12-25T09:08:49.227Z,26.67
2022-12-25T09:11:21.810Z,27.17
2022-12-25T09:13:50.948Z,27.00
2022-12-25T09:16:21.765Z,26.63
2022-12-25T09:18:51.167Z,25.70
2022-12-25T09:21:20.299Z,26.30
2022-12-25T09:23:49.420Z,26.87
2022-12-25T09:26:20.130Z,28.10
2022-12-25T09:28:52.318Z,26.20
2022-12-25T09:31:22.702Z,27.07
2022-12-25T09:33:52.000Z,27.70
2022-12-25T09:36:23.613Z,28.83
2022-12-25T09:38:53.024Z,27.33
2022-12-25T09:41:30.079Z,27.27
2022-12-25T09:44:02.618Z,30.63
2022-12-25T09:46:47.025Z,33.17
2022-12-25T09:49:21.959Z,33.97
2022-12-25T09:52:34.827Z,36.93
2022-12-25T09:55:19.800Z,33.63
2022-12-25T09:58:34.976Z,31.63
2022-12-25T10:01:14.366Z,31.70
2022-12-25T10:04:01.720Z,29.20
2022-12-25T10:06:38.511Z,30.53
2022-12-25T10:09:34.437Z,33.80
2022-12-25T10:12:18.520Z,29.07
2022-12-25T10:15:01.562Z,29.60
2022-12-25T10:17:42.779Z,30.13
2022-12-25T10:20:21.021Z,55.43
2022-12-25T10:22:54.227Z,32.97
2022-12-25T10:25:25.118Z,43.10
2022-12-25T10:27:57.143Z,32.05
2022-12-25T10:30:28.044Z,25.33
2022-12-25T10:33:00.683Z,25.90
2022-12-25T10:35:31.764Z,27.87
2022-12-25T10:38:03.975Z,26.00
2022-12-25T10:40:50.356Z,26.50
2022-12-25T10:43:28.443Z,26.63
2022-12-25T10:45:57.400Z,27.70
2022-12-25T10:48:30.427Z,27.57
2022-12-25T10:50:59.337Z,28.63
2022-12-25T10:53:31.042Z,28.30
2022-12-25T10:56:02.274Z,29.57
2022-12-25T10:58:31.923Z,26.67
2022-12-25T11:01:02.629Z,24.97
2022-12-25T11:03:34.725Z,26.10
2022-12-25T11:07:06.480Z,23.07
2022-12-25T11:09:36.761Z,24.93
2022-12-25T11:12:06.472Z,25.50
2022-12-25T11:14:35.452Z,26.33
2022-12-25T11:17:10.507Z,29.87
2022-12-25T11:19:56.172Z,28.77
2022-12-25T11:22:31.975Z,24.23
2022-12-25T11:25:35.709Z,22.60
2022-12-25T11:28:09.376Z,19.93
2022-12-25T11:31:46.639Z,17.93
2022-12-25T11:34:26.844Z,18.30
2022-12-25T11:36:57.183Z,18.80
2022-12-25T11:39:28.590Z,18.70
2022-12-25T11:42:07.047Z,19.47
2022-12-25T11:44:42.189Z,19.63
2022-12-25T11:47:21.842Z,18.93
2022-12-25T11:50:12.916Z,17.47
2022-12-25T11:52:47.551Z,19.37
2022-12-25T11:55:28.501Z,21.40
2022-12-25T11:58:02.753Z,19.70
2022-12-25T12:00:44.499Z,19.50
2022-12-25T12:03:19.744Z,19.27
2022-12-25T12:05:52.750Z,20.40
2022-12-25T12:08:22.923Z,21.63
2022-12-25T12:11:16.336Z,21.87
2022-12-25T12:14:03.010Z,21.70
2022-12-25T12:16:32.178Z,19.97
2022-12-25T12:19:11.522Z,20.80
2022-12-25T12:21:44.317Z,20.83
2022-12-25T12:24:18.686Z,21.97
2022-12-25T12:26:49.001Z,21.77
2022-12-25T12:29:27.202Z,20.90
2022-12-25T12:32:06.115Z,20.97
2022-12-25T12:34:42.652Z,20.73
2022-12-25T12:37:34.087Z,21.17
2022-12-25T12:40:08.788Z,23.13
2022-12-25T12:42:50.740Z,23.17
2022-12-25T12:45:37.555Z,26.80
2022-12-25T12:48:17.481Z,27.30
2022-12-25T12:50:46.295Z,28.83
2022-12-25T12:53:44.268Z,28.23
2022-12-25T12:56:17.721Z,36.97
2022-12-25T12:58:51.065Z,28.40
2022-12-25T13:01:41.162Z,28.43
2022-12-25T13:04:39.808Z,23.67
2022-12-25T13:07:21.209Z,22.73
2022-12-25T13:10:05.354Z,22.87
2022-12-25T13:12:35.976Z,22.97
2022-12-25T13:15:05.469Z,22.13
2022-12-25T13:17:34.270Z,24.40
2022-12-25T13:20:03.561Z,24.93
2022-12-25T13:22:34.597Z,25.33
2022-12-25T13:25:05.823Z,22.30
2022-12-25T13:27:36.150Z,24.47
2022-12-25T13:30:14.713Z,24.60
2022-12-25T13:32:46.022Z,25.03
2022-12-25T13:35:15.883Z,26.07
2022-12-25T13:37:45.771Z,25.43
2022-12-25T13:40:24.168Z,23.70
2022-12-25T13:42:58.459Z,24.10
2022-12-25T13:45:31.436Z,24.37
2022-12-25T13:48:10.698Z,27.53
2022-12-25T13:50:39.854Z,26.13
2022-12-25T13:53:15.570Z,28.20
2022-12-25T13:55:48.725Z,28.43
2022-12-25T13:58:26.432Z,27.30
2022-12-25T14:00:57.068Z,27.60
2022-12-25T14:04:11.259Z,29.07
2022-12-25T14:06:54.796Z,27.97
2022-12-25T14:09:24.789Z,28.00
2022-12-25T14:11:54.673Z,28.53
2022-12-25T14:14:27.243Z,28.30
2022-12-25T14:16:59.991Z,28.57
2022-12-25T14:19:31.007Z,30.00
2022-12-25T14:22:04.270Z,32.63
2022-12-25T14:24:36.330Z,35.93
2022-12-25T14:27:07.622Z,32.80
2022-12-25T14:29:40.918Z,31.20
2022-12-25T14:32:15.507Z,31.83
2022-12-25T14:34:46.427Z,29.80
2022-12-25T14:37:19.396Z,28.87
2022-12-25T14:40:02.473Z,28.20
2022-12-25T14:42:33.642Z,30.70
2022-12-25T14:45:09.232Z,30.40
2022-12-25T14:47:52.720Z,28.70
2022-12-25T14:50:32.651Z,30.00
2022-12-25T14:53:01.976Z,29.60
2022-12-25T14:55:32.106Z,27.93
2022-12-25T14:58:07.639Z,29.60
2022-12-25T15:00:42.150Z,28.77
2022-12-25T15:03:33.125Z,29.37
2022-12-25T15:06:25.043Z,31.40
2022-12-25T15:08:58.742Z,32.60
2022-12-25T15:11:34.841Z,33.23
2022-12-25T15:14:24.738Z,38.13
2022-12-25T15:17:37.558Z,34.00
2022-12-25T15:20:16.561Z,33.50
2022-12-25T15:23:21.932Z,33.17
2022-12-25T15:26:12.454Z,33.03
2022-12-25T15:28:57.627Z,33.70
2022-12-25T15:31:31.026Z,33.60
2022-12-25T15:34:05.503Z,33.73
2022-12-25T15:36:37.307Z,34.27
2022-12-25T15:39:06.112Z,34.50
2022-12-25T15:41:55.501Z,35.80
2022-12-25T15:44:41.463Z,33.60
2022-12-25T15:47:11.597Z,37.23
2022-12-25T15:49:42.150Z,34.77
2022-12-25T15:52:18.811Z,35.73
2022-12-25T15:54:47.568Z,37.33
2022-12-25T15:57:21.112Z,38.50
2022-12-25T15:59:50.088Z,36.97
2022-12-25T16:02:21.388Z,37.80
2022-12-25T16:04:54.588Z,34.67
2022-12-25T16:07:25.410Z,34.67
2022-12-25T16:09:54.437Z,36.97
2022-12-25T16:12:23.236Z,36.73
2022-12-25T16:14:52.111Z,36.67
2022-12-25T16:17:20.935Z,38.07
2022-12-25T16:19:52.314Z,38.70
2022-12-25T16:22:23.283Z,38.10
2022-12-25T16:24:52.088Z,39.17
2022-12-25T16:27:20.884Z,37.13
2022-12-25T16:29:50.078Z,43.03
2022-12-25T16:32:19.173Z,40.97
2022-12-25T16:34:52.651Z,42.77
2022-12-25T16:37:22.049Z,42.20
2022-12-25T16:39:50.974Z,44.80
2022-12-25T16:42:19.790Z,37.87
2022-12-25T16:44:51.100Z,39.33
2022-12-25T16:47:19.825Z,38.60
2022-12-25T16:49:48.683Z,35.87
2022-12-25T16:52:18.950Z,36.87
2022-12-25T16:54:47.755Z,38.80
2022-12-25T16:57:16.856Z,39.07
2022-12-25T16:59:45.640Z,39.40
2022-12-25T17:02:17.793Z,38.40
2022-12-25T17:04:47.593Z,38.63
2022-12-25T17:07:18.750Z,37.03
2022-12-25T17:09:58.545Z,38.20
2022-12-25T17:12:32.732Z,37.87
2022-12-25T17:23:56.523Z,40.97
2022-12-25T17:53:43.768Z,39.50
2022-12-25T17:56:13.673Z,40.50
2022-12-25T17:58:43.659Z,38.40
2022-12-25T18:01:15.322Z,38.60
2022-12-25T18:03:44.733Z,39.33
2022-12-25T18:06:16.159Z,35.90
2022-12-25T18:08:48.096Z,38.90
2022-12-25T18:11:18.221Z,35.43
2022-12-25T18:13:50.128Z,37.23
2022-12-25T18:16:19.723Z,35.30
2022-12-25T18:18:52.326Z,34.47
2022-12-25T18:21:22.852Z,34.13
2022-12-25T18:27:33.219Z,38.13
2022-12-25T18:30:07.589Z,41.17
2022-12-25T18:32:36.548Z,40.43
2022-12-25T18:35:05.860Z,38.00
2022-12-25T18:37:40.047Z,38.97
2022-12-25T18:40:10.397Z,39.27
2022-12-25T18:42:43.283Z,36.10
2022-12-25T18:45:17.837Z,37.97
2022-12-25T18:47:46.735Z,35.70
2022-12-25T18:50:15.853Z,36.50
2022-12-25T18:52:49.713Z,36.83
2022-12-25T18:55:20.329Z,36.80
2022-12-25T18:57:50.594Z,33.87
2022-12-25T19:00:20.072Z,38.40
2022-12-25T19:02:49.782Z,36.23
2022-12-25T19:05:18.996Z,38.83
2022-12-25T19:07:47.786Z,39.23
2022-12-25T19:10:16.425Z,39.60
2022-12-25T19:12:45.061Z,40.93
2022-12-25T19:15:15.602Z,40.80
2022-12-25T19:17:44.156Z,37.30
2022-12-25T19:20:13.838Z,37.53
2022-12-25T19:22:42.593Z,36.63
2022-12-25T19:25:11.516Z,36.97
2022-12-25T19:27:40.523Z,36.83
2022-12-25T19:30:10.723Z,36.07
2022-12-25T19:32:40.988Z,36.77
2022-12-25T19:35:09.996Z,35.50
2022-12-25T19:37:40.388Z,35.37
2022-12-25T19:40:09.985Z,36.63
2022-12-25T19:42:43.413Z,34.77
2022-12-25T19:45:12.610Z,37.07
2022-12-25T19:47:44.567Z,37.20
2022-12-25T19:50:13.486Z,36.97
2022-12-25T19:52:42.562Z,35.80
2022-12-25T19:55:15.930Z,37.83
2022-12-25T19:57:47.207Z,36.27
2022-12-25T20:00:26.144Z,35.27
2022-12-25T20:02:56.474Z,37.47
2022-12-25T20:05:25.271Z,38.90
2022-12-25T20:07:53.945Z,37.23
2022-12-25T20:10:23.082Z,36.73
2022-12-25T20:12:53.457Z,37.30
2022-12-25T20:15:27.061Z,37.57
2022-12-25T20:18:03.272Z,36.70
2022-12-25T20:20:55.315Z,36.40
2022-12-25T20:23:24.070Z,36.80
2022-12-25T20:25:54.625Z,37.17
2022-12-25T20:28:23.423Z,35.57
2022-12-25T20:30:52.029Z,36.63
2022-12-25T20:33:22.266Z,34.67
2022-12-25T20:35:52.862Z,36.63
2022-12-25T20:38:22.622Z,37.67
2022-12-25T20:41:24.918Z,35.13
2022-12-25T20:43:45.156Z,35.17
2022-12-25T20:46:14.236Z,34.23
2022-12-25T20:48:46.223Z,34.37
2022-12-25T20:51:16.907Z,34.50
2022-12-25T20:53:46.000Z,36.27
2022-12-25T20:56:17.114Z,34.20
2022-12-25T20:58:45.884Z,32.80
2022-12-25T21:01:17.278Z,34.80
2022-12-25T21:03:47.690Z,33.13
2022-12-25T21:09:13.043Z,33.77
2022-12-25T21:11:41.681Z,32.87
2022-12-25T21:14:10.693Z,32.60
2022-12-25T21:16:39.398Z,33.63
2022-12-25T21:19:09.596Z,31.70
2022-12-25T21:21:43.017Z,31.60
2022-12-25T21:24:12.167Z,32.30
2022-12-25T21:26:47.673Z,31.27
2022-12-25T21:29:16.834Z,33.27
2022-12-25T21:32:02.864Z,30.07
2022-12-25T21:34:32.953Z,32.70
2022-12-25T21:37:01.555Z,32.00
2022-12-25T21:39:30.319Z,31.23
2022-12-25T21:41:59.635Z,31.50
2022-12-25T21:44:28.286Z,31.20
2022-12-25T21:46:56.809Z,31.00
2022-12-25T21:49:39.429Z,31.63
2022-12-25T21:52:09.607Z,32.47
2022-12-25T21:54:40.836Z,30.57
2022-12-25T21:57:09.550Z,32.47
2022-12-25T21:59:38.545Z,33.43
2022-12-25T22:02:11.780Z,33.07
2022-12-25T22:04:41.021Z,89.82
2022-12-25T22:07:19.095Z,33.00
2022-12-25T22:09:49.036Z,39.85
2022-12-25T22:12:36.757Z,36.50
2022-12-25T22:15:07.609Z,35.13
2022-12-25T22:17:55.724Z,33.53
2022-12-25T22:20:30.310Z,36.50
2022-12-25T22:23:00.273Z,35.27
2022-12-25T22:25:28.845Z,34.40
2022-12-25T22:27:57.814Z,33.97
2022-12-25T22:30:29.734Z,35.50
2022-12-25T22:32:58.592Z,34.07
2022-12-25T22:35:27.180Z,32.90
2022-12-25T22:37:56.389Z,35.77
2022-12-25T22:40:26.561Z,34.07
2022-12-25T22:42:56.569Z,35.50
2022-12-25T22:45:25.539Z,35.30
2022-12-25T22:47:54.150Z,35.87
2022-12-25T22:50:23.139Z,33.93
2022-12-25T22:52:52.068Z,44.20
2022-12-25T22:55:20.739Z,36.60
2022-12-25T22:57:52.309Z,35.23
2022-12-25T23:00:20.856Z,35.13
2022-12-25T23:02:49.584Z,34.27
2022-12-25T23:05:18.691Z,32.23
2022-12-25T23:07:47.445Z,33.93
2022-12-25T23:10:16.318Z,30.83
2022-12-25T23:13:02.438Z,31.43
2022-12-25T23:15:32.862Z,29.60
2022-12-25T23:18:19.195Z,30.13
2022-12-25T23:21:06.182Z,30.03
2022-12-25T23:23:54.842Z,29.00
2022-12-25T23:26:23.697Z,28.40
2022-12-25T23:29:09.803Z,30.10
2022-12-25T23:31:44.057Z,28.03
2022-12-25T23:34:13.050Z,27.10
2022-12-25T23:36:41.713Z,27.97
2022-12-25T23:39:10.782Z,28.47
2022-12-25T23:41:40.151Z,29.07
2022-12-25T23:44:09.405Z,28.80
2022-12-25T23:46:38.709Z,33.63
2022-12-25T23:49:09.798Z,30.43
2022-12-25T23:51:45.130Z,28.80
2022-12-25T23:54:16.314Z,27.57
2022-12-25T23:56:45.277Z,28.03
2022-12-25T23:59:14.415Z,27.97
